Time;durP1;ratioP1;P1;durP2;ratioP2;P2;SDS_P1;SDS_P2;PMS_P1;PMS_P2;Temp;Humidity;BMP_temperature;BMP_pressure;BME280_temperature;BME280_humidity;BME280_pressure;Samples;Min_cycle;Max_cycle;Signal;HPM_P1;HPM_P2
2023/03/09 00:00:31;;;;;;;;;;;;;;;18.44;62.97;97840.75;2069695;28;19978;-64
2023/03/09 00:01:32;;;;;;;;;;;;;;;18.44;62.97;97832.69;2067319;28;20442;-66
2023/03/09 00:02:33;;;;;;;;;;;;;;;18.42;63.11;97832.94;2068546;28;19929;-65
2023/03/09 00:03:34;;;;;;;;;;;;;;;18.44;63.09;97838.06;2068420;28;20010;-66
2023/03/09 00:04:35;;;;;;;;;;;;;;;18.43;62.94;97837.25;2068064;28;20748;-65
2023/03/09 00:05:35;;;;;;;;;;;;;;;18.44;63.09;97849.66;2064724;28;20444;-65
2023/03/09 00:06:37;;;;;;;;;;;;;;;18.44;63.08;97846.97;2062212;28;20182;-64
2023/03/09 00:07:37;;;;;;;;;;;;;;;18.43;63.15;97845.31;2075443;28;19985;-66
2023/03/09 00:08:39;;;;;;;;;;;;;;;18.44;63.16;97849.66;2074882;28;19986;-66
2023/03/09 00:09:39;;;;;;;;;;;;;;;18.45;63.15;97847.78;2071593;28;20447;-65
2023/03/09 00:10:41;;;;;;;;;;;;;;;18.44;63.17;97846.97;2069311;28;20001;-65
2023/03/09 00:11:42;;;;;;;;;;;;;;;18.45;63.01;97837.03;2068747;28;20341;-65
2023/03/09 00:12:44;;;;;;;;;;;;;;;18.44;62.99;97830.84;2067190;28;20079;-64
2023/03/09 00:13:45;;;;;;;;;;;;;;;18.45;62.87;97829.00;2065736;28;20356;-65
2023/03/09 00:14:51;;;;;;;;;;;;;;;18.46;63.17;97833.31;2066445;28;20878;-65
2023/03/09 00:15:51;;;;;;;;;;;;;;;18.46;63.32;97831.44;2067652;28;21266;-65
2023/03/09 00:16:53;;;;;;;;;;;;;;;18.43;63.22;97834.56;2069805;28;19929;-65
2023/03/09 00:17:53;;;;;;;;;;;;;;;18.43;63.34;97826.50;2069873;28;20010;-65
2023/03/09 00:18:56;;;;;;;;;;;;;;;18.45;63.17;97831.69;2074567;28;19947;-65
2023/03/09 00:20:15;;;;;;;;;;;;;;;18.43;63.27;97823.81;2082789;28;20413;-64
2023/03/09 00:21:25;;;;;;;;;;;;;;;18.42;63.57;97822.19;2080920;28;20469;-65
2023/03/09 00:22:26;;;;;;;;;;;;;;;18.41;63.27;97831.28;2070541;28;19925;-64
2023/03/09 00:23:27;;;;;;;;;;;;;;;18.43;63.25;97823.00;2078820;28;20453;-64
2023/03/09 00:24:28;;;;;;;;;;;;;;;18.43;63.26;97821.13;2080700;28;20121;-65
2023/03/09 00:25:29;;;;;;;;;;;;;;;18.44;63.50;97820.13;2080240;28;19982;-66
2023/03/09 00:26:30;;;;;;;;;;;;;;;18.45;63.27;97823.63;2081818;28;19946;-66
2023/03/09 00:27:31;;;;;;;;;;;;;;;18.42;63.48;97816.81;2079785;28;19963;-65
2023/03/09 00:28:31;;;;;;;;;;;;;;;18.42;63.46;97816.00;2080801;28;20002;-65
2023/03/09 00:29:33;;;;;;;;;;;;;;;18.43;63.16;97815.78;2082148;28;20141;-65
2023/03/09 00:30:35;;;;;;;;;;;;;;;18.43;63.43;97817.63;2080299;28;19981;-65
2023/03/09 00:31:36;;;;;;;;;;;;;;;18.44;63.47;97811.22;2079899;28;20370;-65
2023/03/09 00:32:37;;;;;;;;;;;;;;;18.44;63.49;97811.22;2081226;28;19933;-66
2023/03/09 00:33:38;;;;;;;;;;;;;;;18.42;63.46;97814.13;2080720;28;20133;-66
2023/03/09 00:34:39;;;;;;;;;;;;;;;18.43;63.56;97818.47;2069867;28;20417;-65
2023/03/09 00:35:40;;;;;;;;;;;;;;;18.42;63.55;97810.63;2080403;28;19928;-66
2023/03/09 00:36:40;;;;;;;;;;;;;;;18.41;63.58;97804.44;2078239;28;19929;-66
2023/03/09 00:37:42;;;;;;;;;;;;;;;18.41;63.57;97804.44;2072032;28;19931;-65
2023/03/09 00:38:43;;;;;;;;;;;;;;;18.41;63.45;97803.59;2079373;28;19924;-65
2023/03/09 00:39:44;;;;;;;;;;;;;;;18.40;63.72;97816.22;2073112;28;20373;-65
2023/03/09 00:40:45;;;;;;;;;;;;;;;18.39;63.56;97814.59;2074563;28;19975;-65
2023/03/09 00:41:46;;;;;;;;;;;;;;;18.37;63.69;97813.97;2077825;28;20385;-65
2023/03/09 00:42:46;;;;;;;;;;;;;;;18.38;63.93;97815.63;2077130;28;22240;-66
2023/03/09 00:43:48;;;;;;;;;;;;;;;18.38;63.59;97809.44;2075098;28;20274;-65
2023/03/09 00:44:50;;;;;;;;;;;;;;;18.39;63.63;97803.84;2079847;28;19925;-65
2023/03/09 00:45:53;;;;;;;;;;;;;;;18.38;63.75;97796.81;2079876;28;19999;-65
2023/03/09 00:46:53;;;;;;;;;;;;;;;18.38;63.69;97798.69;2080500;28;19937;-65
2023/03/09 00:47:55;;;;;;;;;;;;;;;18.39;63.65;97803.03;2080498;28;20199;-65
2023/03/09 00:48:56;;;;;;;;;;;;;;;18.38;63.95;97796.00;2080394;28;20013;-65
2023/03/09 00:49:57;;;;;;;;;;;;;;;18.39;63.71;97801.16;2071705;28;20459;-65
2023/03/09 00:50:58;;;;;;;;;;;;;;;18.38;63.99;97794.13;2069912;28;19935;-66
2023/03/09 00:51:59;;;;;;;;;;;;;;;18.37;63.79;97803.25;2057845;28;20038;-65
2023/03/09 00:52:59;;;;;;;;;;;;;;;18.38;64.08;97793.31;2066247;28;20006;-65
2023/03/09 00:54:01;;;;;;;;;;;;;;;18.36;63.97;97796.25;2068764;28;20483;-64
2023/03/09 00:55:01;;;;;;;;;;;;;;;18.36;64.06;97792.72;2070444;28;20005;-65
2023/03/09 00:56:04;;;;;;;;;;;;;;;18.36;64.08;97790.88;2070269;28;19929;-65
2023/03/09 00:57:04;;;;;;;;;;;;;;;18.35;63.97;97783.84;2069746;28;20513;-65
2023/03/09 00:58:06;;;;;;;;;;;;;;;18.35;63.91;97781.16;2065886;28;19960;-66
2023/03/09 00:59:06;;;;;;;;;;;;;;;18.38;64.09;97772.66;2065624;28;19929;-65
2023/03/09 01:00:08;;;;;;;;;;;;;;;18.35;63.94;97781.16;2067670;28;19964;-65
2023/03/09 01:01:11;;;;;;;;;;;;;;;18.37;63.99;97778.25;2072151;28;19933;-66
2023/03/09 01:02:13;;;;;;;;;;;;;;;18.37;63.60;97765.66;2067401;28;20504;-64
2023/03/09 01:03:13;;;;;;;;;;;;;;;18.37;63.87;97768.34;2068161;28;20283;-66
2023/03/09 01:04:14;;;;;;;;;;;;;;;18.38;64.00;97767.28;2063936;28;19929;-65
2023/03/09 01:05:15;;;;;;;;;;;;;;;18.36;63.72;97764.03;2065516;28;19933;-65
2023/03/09 01:06:16;;;;;;;;;;;;;;;18.37;63.71;97771.03;2067495;28;20381;-66
2023/03/09 01:07:17;;;;;;;;;;;;;;;18.37;63.63;97768.34;2069057;28;20147;-65
2023/03/09 01:08:19;;;;;;;;;;;;;;;18.36;64.14;97774.75;2068451;28;21283;-66
2023/03/09 01:09:19;;;;;;;;;;;;;;;18.36;64.13;97769.41;2070784;28;19933;-65
2023/03/09 01:10:21;;;;;;;;;;;;;;;18.37;64.26;97775.59;2069758;28;20011;-65
2023/03/09 01:11:21;;;;;;;;;;;;;;;18.37;64.29;97775.59;2071924;28;19933;-65
2023/03/09 01:12:23;;;;;;;;;;;;;;;18.37;64.17;97773.72;2068053;28;20183;-64
2023/03/09 01:13:24;;;;;;;;;;;;;;;18.38;64.44;97778.03;2068151;28;19929;-65
2023/03/09 01:14:25;;;;;;;;;;;;;;;18.36;64.21;97777.44;2068125;28;19951;-65
2023/03/09 01:15:26;;;;;;;;;;;;;;;18.38;64.44;97779.91;2066108;28;20063;-65
2023/03/09 01:16:28;;;;;;;;;;;;;;;18.37;64.46;97775.59;2068892;28;21213;-65
2023/03/09 01:17:29;;;;;;;;;;;;;;;18.35;64.16;97770.41;2068819;28;19982;-65
2023/03/09 01:18:31;;;;;;;;;;;;;;;18.35;64.42;97767.75;2067854;28;20484;-65
2023/03/09 01:19:31;;;;;;;;;;;;;;;18.35;64.33;97766.91;2067106;28;20360;-65
2023/03/09 01:20:32;;;;;;;;;;;;;;;18.35;64.35;97756.19;2068393;28;20099;-66
2023/03/09 01:21:33;;;;;;;;;;;;;;;18.35;64.33;97757.00;2057691;28;20032;-66
2023/03/09 01:22:34;;;;;;;;;;;;;;;18.34;64.34;97755.38;2068710;28;20225;-65
2023/03/09 01:23:35;;;;;;;;;;;;;;;18.33;64.30;97755.56;2069724;28;19941;-65
2023/03/09 01:24:36;;;;;;;;;;;;;;;18.32;64.52;97741.34;2067159;28;20573;-66
2023/03/09 01:25:37;;;;;;;;;;;;;;;18.33;64.56;97744.84;2070023;28;20473;-65
2023/03/09 01:26:40;;;;;;;;;;;;;;;18.31;64.43;97747.75;2077212;28;20229;-65
2023/03/09 01:27:41;;;;;;;;;;;;;;;18.31;64.26;97750.44;2070668;28;19929;-65
2023/03/09 01:28:42;;;;;;;;;;;;;;;18.31;64.48;97745.06;2066744;28;20042;-66
2023/03/09 01:29:42;;;;;;;;;;;;;;;18.31;64.35;97750.44;2071772;28;19929;-66
2023/03/09 01:30:44;;;;;;;;;;;;;;;18.31;64.33;97750.44;2056947;28;20371;-65
2023/03/09 01:31:46;;;;;;;;;;;;;;;18.30;64.20;97759.53;2066091;28;20163;-64
2023/03/09 01:32:47;;;;;;;;;;;;;;;18.30;64.40;97754.16;2069120;28;19975;-66
2023/03/09 01:33:48;;;;;;;;;;;;;;;18.28;64.55;97748.22;2054194;28;19925;-66
2023/03/09 01:34:49;;;;;;;;;;;;;;;18.29;64.59;97747.97;2066336;28;20008;-65
2023/03/09 01:35:50;;;;;;;;;;;;;;;18.29;64.57;97744.47;2061231;28;21660;-66
2023/03/09 01:36:51;;;;;;;;;;;;;;;18.29;64.41;97744.47;2065311;28;19990;-65
2023/03/09 01:37:52;;;;;;;;;;;;;;;18.28;64.60;97750.91;2067018;28;19925;-65
2023/03/09 01:38:53;;;;;;;;;;;;;;;18.27;64.38;97750.06;2066684;28;20474;-66
2023/03/09 01:39:54;;;;;;;;;;;;;;;18.27;64.65;97746.56;2068788;28;20360;-64
2023/03/09 01:40:55;;;;;;;;;;;;;;;18.27;64.59;97751.91;2074565;28;19953;-65
2023/03/09 01:41:56;;;;;;;;;;;;;;;18.27;64.34;97744.69;2077113;28;19936;-66
2023/03/09 01:42:59;;;;;;;;;;;;;;;18.25;64.42;97740.59;2068970;28;19929;-65
2023/03/09 01:43:59;;;;;;;;;;;;;;;18.25;64.47;97754.84;2070030;28;19929;-65
2023/03/09 01:45:32;;;;;;;;;;;;;;;18.26;64.57;97752.97;2070800;28;19974;-64
2023/03/09 01:46:38;;;;;;;;;;;;;;;18.25;64.46;97743.28;2068778;28;19978;-64
2023/03/09 01:47:40;;;;;;;;;;;;;;;18.24;64.38;97737.06;2069008;28;19928;-65
2023/03/09 01:48:41;;;;;;;;;;;;;;;18.24;64.26;97734.41;2063261;28;21095;-66
2023/03/09 01:49:44;;;;;;;;;;;;;;;18.23;64.29;97732.75;2067934;28;19933;-65
2023/03/09 01:50:45;;;;;;;;;;;;;;;18.24;64.33;97747.00;2069052;28;20114;-65
2023/03/09 01:51:49;;;;;;;;;;;;;;;18.22;64.33;97746.41;2067181;28;20079;-65
2023/03/09 01:52:51;;;;;;;;;;;;;;;18.21;64.59;97739.41;2069169;28;19933;-65
2023/03/09 01:53:53;;;;;;;;;;;;;;;18.22;64.50;97741.88;2060760;28;20444;-65
2023/03/09 01:54:58;;;;;;;;;;;;;;;18.21;64.37;97731.34;2069736;28;20365;-66
2023/03/09 01:56:00;;;;;;;;;;;;;;;18.20;64.30;97727.03;2068894;28;20404;-65
2023/03/09 01:57:04;;;;;;;;;;;;;;;18.20;64.60;97727.03;2072912;28;20424;-65
2023/03/09 01:58:08;;;;;;;;;;;;;;;18.20;64.56;97732.41;2069102;28;20492;-65
2023/03/09 01:59:09;;;;;;;;;;;;;;;18.20;64.25;97733.22;2067520;28;19964;-65
2023/03/09 02:00:13;;;;;;;;;;;;;;;18.19;64.31;97731.59;2071213;28;19933;-65
2023/03/09 02:01:13;;;;;;;;;;;;;;;18.20;64.25;97735.91;2065703;28;19940;-66
2023/03/09 02:02:16;;;;;;;;;;;;;;;18.19;64.48;97730.75;2068835;28;19987;-66
2023/03/09 02:03:20;;;;;;;;;;;;;;;18.18;64.48;97734.47;2067965;28;20471;-65
2023/03/09 02:04:24;;;;;;;;;;;;;;;18.16;64.71;97725.81;2069987;28;20412;-64
2023/03/09 02:05:28;;;;;;;;;;;;;;;18.16;64.29;97731.19;2069687;28;19928;-65
2023/03/09 02:06:30;;;;;;;;;;;;;;;18.15;64.66;97734.91;2070842;28;21455;-65
2023/03/09 02:07:34;;;;;;;;;;;;;;;18.16;64.46;97725.81;2065125;28;19928;-65
2023/03/09 02:08:36;;;;;;;;;;;;;;;18.14;64.26;97718.00;2080165;28;19967;-66
2023/03/09 02:09:40;;;;;;;;;;;;;;;18.14;64.65;97725.25;2079524;28;19925;-66
2023/03/09 02:10:43;;;;;;;;;;;;;;;18.14;64.19;97728.75;2082422;28;19933;-65
2023/03/09 02:11:44;;;;;;;;;;;;;;;18.13;64.65;97729.75;2071342;28;19928;-66
2023/03/09 02:12:47;;;;;;;;;;;;;;;18.12;64.56;97722.78;2082076;28;20104;-66
2023/03/09 02:14:06;;;;;;;;;;;;;;;18.12;64.47;97725.44;2080156;28;19959;-64
2023/03/09 02:15:08;;;;;;;;;;;;;;;18.11;64.48;97728.34;2082132;28;19924;-65
2023/03/09 02:16:08;;;;;;;;;;;;;;;18.09;64.29;97726.72;2080811;28;20451;-65
2023/03/09 02:17:11;;;;;;;;;;;;;;;18.10;64.33;97716.78;2081714;28;19933;-65
2023/03/09 02:18:11;;;;;;;;;;;;;;;18.11;64.26;97722.97;2080758;28;19928;-66
2023/03/09 02:19:19;;;;;;;;;;;;;;;18.11;64.53;97722.97;2082045;28;19986;-65
2023/03/09 02:20:23;;;;;;;;;;;;;;;18.11;64.53;97714.94;2081238;28;19944;-65
2023/03/09 02:21:28;;;;;;;;;;;;;;;18.10;64.43;97719.47;2081861;28;19937;-66
2023/03/09 02:22:30;;;;;;;;;;;;;;;18.09;64.38;97707.94;2081519;28;19937;-66
2023/03/09 02:23:36;;;;;;;;;;;;;;;18.08;64.62;97708.97;2080555;28;19933;-65
2023/03/09 02:24:43;;;;;;;;;;;;;;;18.08;64.74;97702.81;2081245;28;20375;-66
2023/03/09 02:25:48;;;;;;;;;;;;;;;18.07;64.73;97701.97;2081372;28;20217;-65
2023/03/09 02:26:51;;;;;;;;;;;;;;;18.07;64.71;97704.63;2081106;28;20003;-66
2023/03/09 02:27:53;;;;;;;;;;;;;;;18.08;64.60;97702.81;2073220;28;19956;-65
2023/03/09 02:28:55;;;;;;;;;;;;;;;18.06;64.50;97699.50;2079377;28;19975;-66
2023/03/09 02:29:55;;;;;;;;;;;;;;;18.05;64.84;97706.75;2081253;28;19983;-65
2023/03/09 02:30:57;;;;;;;;;;;;;;;18.05;64.89;97708.59;2080459;28;20055;-65
2023/03/09 02:31:58;;;;;;;;;;;;;;;18.06;64.58;97710.25;2081602;28;20441;-66
2023/03/09 02:33:03;;;;;;;;;;;;;;;18.05;64.73;97706.75;2081478;28;19994;-65
2023/03/09 02:34:03;;;;;;;;;;;;;;;18.05;64.69;97703.22;2070627;28;20175;-65
2023/03/09 02:35:09;;;;;;;;;;;;;;;18.05;64.84;97714.78;2081193;28;19991;-66
2023/03/09 02:36:10;;;;;;;;;;;;;;;18.06;64.79;97708.38;2081508;28;19925;-66
2023/03/09 02:37:24;;;;;;;;;;;;;;;18.05;65.03;97711.28;2082420;28;20421;-66
2023/03/09 02:38:25;;;;;;;;;;;;;;;18.03;64.85;97711.50;2081511;28;19990;-65
2023/03/09 02:39:30;;;;;;;;;;;;;;;18.02;64.98;97714.41;2080381;28;20145;-64
2023/03/09 02:40:32;;;;;;;;;;;;;;;18.03;65.03;97729.47;2082007;28;19990;-65
2023/03/09 02:41:33;;;;;;;;;;;;;;;18.01;65.22;97729.69;2080288;28;19947;-65
2023/03/09 02:42:34;;;;;;;;;;;;;;;18.01;65.19;97736.91;2080773;28;19929;-65
2023/03/09 02:43:37;;;;;;;;;;;;;;;18.01;65.26;97739.59;2080595;28;20301;-65
2023/03/09 02:44:38;;;;;;;;;;;;;;;18.00;65.23;97744.16;2072077;28;20148;-66
2023/03/09 02:45:40;;;;;;;;;;;;;;;17.99;65.20;97750.53;2078216;28;20125;-65
2023/03/09 02:46:40;;;;;;;;;;;;;;;17.98;65.36;97751.59;2067353;28;20410;-65
2023/03/09 02:47:42;;;;;;;;;;;;;;;17.99;65.15;97750.53;2070096;28;19928;-65
2023/03/09 02:48:42;;;;;;;;;;;;;;;17.99;65.12;97752.41;2068018;28;19936;-65
2023/03/09 02:49:44;;;;;;;;;;;;;;;17.97;65.03;97757.16;2067864;28;20031;-65
2023/03/09 02:50:44;;;;;;;;;;;;;;;17.95;65.32;97753.91;2069219;28;20361;-66
2023/03/09 02:51:45;;;;;;;;;;;;;;;17.95;65.30;97751.22;2064232;28;19972;-65
2023/03/09 02:52:46;;;;;;;;;;;;;;;17.99;64.97;97757.78;2067422;28;20447;-66
2023/03/09 02:53:47;;;;;;;;;;;;;;;17.94;64.92;97766.50;2067840;28;20026;-66
2023/03/09 02:54:48;;;;;;;;;;;;;;;17.94;65.12;97761.13;2070207;28;20156;-66
2023/03/09 02:55:49;;;;;;;;;;;;;;;17.95;65.01;97768.13;2066392;28;20591;-70
2023/03/09 02:56:50;;;;;;;;;;;;;;;17.93;65.13;97758.66;2067555;28;19929;-65
2023/03/09 02:57:51;;;;;;;;;;;;;;;17.92;65.27;97765.09;2070730;28;20625;-66
2023/03/09 02:58:53;;;;;;;;;;;;;;;17.92;65.33;97768.56;2071318;28;19953;-66
2023/03/09 02:59:54;;;;;;;;;;;;;;;17.93;65.35;97761.34;2070506;28;19932;-64
2023/03/09 03:00:55;;;;;;;;;;;;;;;17.93;65.31;97756.78;2068958;28;20018;-64
2023/03/09 03:01:56;;;;;;;;;;;;;;;17.92;65.04;97765.91;2055885;28;19972;-65
2023/03/09 03:02:57;;;;;;;;;;;;;;;17.93;65.38;97759.47;2061005;28;20684;-65
2023/03/09 03:03:58;;;;;;;;;;;;;;;17.93;65.15;97778.25;2059928;28;20014;-65
2023/03/09 03:04:59;;;;;;;;;;;;;;;17.89;65.46;97771.69;2073325;28;19989;-66
2023/03/09 03:06:00;;;;;;;;;;;;;;;17.91;65.20;97771.47;2068828;28;20543;-65
2023/03/09 03:07:01;;;;;;;;;;;;;;;17.90;65.27;97773.34;2067358;28;20142;-65
2023/03/09 03:08:02;;;;;;;;;;;;;;;17.91;65.29;97771.47;2067444;28;21254;-66
2023/03/09 03:09:03;;;;;;;;;;;;;;;17.91;65.33;97769.59;2064804;28;21384;-65
2023/03/09 03:10:05;;;;;;;;;;;;;;;17.90;65.21;97767.97;2069455;28;19929;-66
2023/03/09 03:11:05;;;;;;;;;;;;;;;17.91;65.26;97769.59;2069191;28;20080;-65
2023/03/09 03:12:07;;;;;;;;;;;;;;;17.89;65.47;97760.97;2069185;28;19933;-65
2023/03/09 03:13:07;;;;;;;;;;;;;;;17.88;65.38;97762.00;2072415;28;20398;-65
2023/03/09 03:14:10;;;;;;;;;;;;;;;17.88;65.37;97763.88;2066076;28;19932;-64
2023/03/09 03:15:11;;;;;;;;;;;;;;;17.86;65.52;97764.09;2077449;28;20448;-65
2023/03/09 03:16:12;;;;;;;;;;;;;;;17.86;65.23;97764.09;2067511;28;19932;-66
2023/03/09 03:17:12;;;;;;;;;;;;;;;17.88;65.17;97762.00;2068788;28;20168;-65
2023/03/09 03:18:14;;;;;;;;;;;;;;;17.89;65.26;97771.69;2060045;28;20437;-65
2023/03/09 03:19:14;;;;;;;;;;;;;;;17.86;65.43;97766.78;2066228;28;20047;-66
2023/03/09 03:20:16;;;;;;;;;;;;;;;17.86;65.53;97761.41;2069987;28;19968;-66
2023/03/09 03:21:17;;;;;;;;;;;;;;;17.82;65.47;97763.69;2068365;28;19941;-65
2023/03/09 03:22:18;;;;;;;;;;;;;;;17.84;65.29;97761.63;2069362;28;19929;-65
2023/03/09 03:23:19;;;;;;;;;;;;;;;17.84;65.45;97766.16;2064341;28;20409;-65
2023/03/09 03:24:20;;;;;;;;;;;;;;;17.83;65.45;97762.66;2071244;28;19929;-65
2023/03/09 03:25:21;;;;;;;;;;;;;;;17.81;65.31;97767.44;2067728;28;19968;-65
2023/03/09 03:26:22;;;;;;;;;;;;;;;17.82;65.53;97762.88;2068954;28;19940;-65
2023/03/09 03:27:23;;;;;;;;;;;;;;;17.81;65.45;97763.94;2067725;28;20784;-65
2023/03/09 03:28:24;;;;;;;;;;;;;;;17.79;65.41;97763.31;2068925;28;19972;-65
2023/03/09 03:29:26;;;;;;;;;;;;;;;17.79;65.42;97768.69;2068676;28;19978;-66
2023/03/09 03:30:28;;;;;;;;;;;;;;;17.79;65.50;97768.69;2078728;28;20414;-65
2023/03/09 03:31:28;;;;;;;;;;;;;;;17.79;65.33;97771.38;2064774;28;19929;-65
2023/03/09 03:32:30;;;;;;;;;;;;;;;17.81;65.49;97764.75;2064383;28;21010;-65
2023/03/09 03:33:30;;;;;;;;;;;;;;;17.82;65.35;97771.75;2068129;28;20271;-64
2023/03/09 03:34:32;;;;;;;;;;;;;;;17.81;65.31;97769.28;2059111;28;19939;-65
2023/03/09 03:35:32;;;;;;;;;;;;;;;17.78;65.49;97778.59;2069696;28;19925;-65
2023/03/09 03:36:34;;;;;;;;;;;;;;;17.75;65.33;97775.50;2070446;28;20524;-65
2023/03/09 03:37:34;;;;;;;;;;;;;;;17.75;65.62;97789.75;2070212;28;21431;-65
2023/03/09 03:38:36;;;;;;;;;;;;;;;17.72;65.80;97782.13;2066064;28;19929;-65
2023/03/09 03:39:37;;;;;;;;;;;;;;;17.73;65.78;97782.94;2071171;28;20523;-65
2023/03/09 03:40:38;;;;;;;;;;;;;;;17.72;65.60;97787.50;2069544;28;19943;-65
2023/03/09 03:41:38;;;;;;;;;;;;;;;17.72;65.68;97784.81;2070826;28;19933;-66
2023/03/09 03:42:40;;;;;;;;;;;;;;;17.71;65.83;97788.50;2069754;28;20373;-65
2023/03/09 03:43:40;;;;;;;;;;;;;;;17.72;65.49;97789.34;2069013;28;19929;-65
2023/03/09 03:44:43;;;;;;;;;;;;;;;17.71;65.50;97795.75;2068016;28;19933;-66
2023/03/09 03:45:43;;;;;;;;;;;;;;;17.70;65.91;97792.25;2074219;28;20408;-65
2023/03/09 03:46:45;;;;;;;;;;;;;;;17.67;65.79;97798.06;2072379;28;20028;-65
2023/03/09 03:47:45;;;;;;;;;;;;;;;17.69;65.56;97797.81;2069950;28;19987;-65
2023/03/09 03:48:47;;;;;;;;;;;;;;;17.70;65.50;97796.78;2068386;28;19937;-65
2023/03/09 03:49:47;;;;;;;;;;;;;;;17.68;65.96;97798.88;2070732;28;19925;-65
2023/03/09 03:50:49;;;;;;;;;;;;;;;17.69;65.49;97800.50;2059268;28;20068;-64
2023/03/09 03:51:49;;;;;;;;;;;;;;;17.67;65.71;97795.38;2067127;28;20658;-64
2023/03/09 03:52:51;;;;;;;;;;;;;;;17.67;65.67;97797.22;2070010;28;19929;-65
2023/03/09 03:53:53;;;;;;;;;;;;;;;17.64;65.67;97793.94;2065745;28;20022;-65
2023/03/09 03:54:53;;;;;;;;;;;;;;;17.67;65.64;97781.13;2065826;28;20274;-65
2023/03/09 03:55:55;;;;;;;;;;;;;;;17.67;65.74;97783.81;2066126;28;19935;-64
2023/03/09 03:56:55;;;;;;;;;;;;;;;17.65;65.73;97778.66;2071386;28;19929;-65
2023/03/09 03:57:57;;;;;;;;;;;;;;;17.63;65.91;97784.25;2067634;28;20017;-64
2023/03/09 03:58:57;;;;;;;;;;;;;;;17.63;65.65;97776.22;2066053;28;19933;-65
2023/03/09 04:00:00;;;;;;;;;;;;;;;17.62;65.75;97779.91;2069631;28;20033;-64
2023/03/09 04:01:01;;;;;;;;;;;;;;;17.63;65.79;97783.41;2067876;28;19959;-64
2023/03/09 04:02:02;;;;;;;;;;;;;;;17.61;65.81;97780.97;2067665;28;19928;-64
2023/03/09 04:03:02;;;;;;;;;;;;;;;17.62;65.61;97785.28;2065472;28;19928;-65
2023/03/09 04:04:04;;;;;;;;;;;;;;;17.61;65.58;97783.66;2057791;28;19928;-64
2023/03/09 04:05:05;;;;;;;;;;;;;;;17.62;66.09;97784.47;2068036;28;19982;-64
2023/03/09 04:06:07;;;;;;;;;;;;;;;17.59;66.15;97780.34;2068001;28;19933;-65
2023/03/09 04:07:07;;;;;;;;;;;;;;;17.59;66.31;97777.69;2068925;28;19929;-65
2023/03/09 04:08:08;;;;;;;;;;;;;;;17.60;65.91;97782.00;2073003;28;20330;-66
2023/03/09 04:09:09;;;;;;;;;;;;;;;17.59;65.71;97772.31;2070331;28;19978;-65
2023/03/09 04:10:11;;;;;;;;;;;;;;;17.60;65.79;97781.19;2068233;28;20402;-64
2023/03/09 04:11:12;;;;;;;;;;;;;;;17.60;65.58;97782.00;2069914;28;20475;-66
2023/03/09 04:12:13;;;;;;;;;;;;;;;17.60;65.60;97787.34;2068806;28;19925;-65
2023/03/09 04:13:14;;;;;;;;;;;;;;;17.60;65.49;97787.34;2066467;28;19940;-66
2023/03/09 04:14:15;;;;;;;;;;;;;;;17.60;65.53;97783.84;2066291;28;19994;-66
2023/03/09 04:15:17;;;;;;;;;;;;;;;17.61;65.38;97782.84;2070320;28;19944;-64
2023/03/09 04:16:18;;;;;;;;;;;;;;;17.62;65.48;97790.66;2076055;28;20059;-65
2023/03/09 04:17:19;;;;;;;;;;;;;;;17.62;65.36;97790.66;2076575;28;20341;-64
2023/03/09 04:18:20;;;;;;;;;;;;;;;17.60;65.60;97795.41;2079744;28;20110;-64
2023/03/09 04:19:21;;;;;;;;;;;;;;;17.61;65.52;97796.25;2074865;28;19932;-64
2023/03/09 04:20:22;;;;;;;;;;;;;;;17.59;65.46;97795.63;2057850;28;19990;-64
2023/03/09 04:21:23;;;;;;;;;;;;;;;17.61;65.37;97793.56;2078733;28;19958;-65
2023/03/09 04:22:24;;;;;;;;;;;;;;;17.62;65.35;97789.84;2080337;28;19962;-66
2023/03/09 04:23:24;;;;;;;;;;;;;;;17.63;65.28;97786.94;2080735;28;20405;-65
2023/03/09 04:24:26;;;;;;;;;;;;;;;17.61;65.49;97783.66;2080584;28;19924;-64
2023/03/09 04:25:26;;;;;;;;;;;;;;;17.61;65.46;97778.28;2075137;28;19962;-65
2023/03/09 04:26:28;;;;;;;;;;;;;;;17.60;65.26;97776.63;2081719;28;19933;-65
2023/03/09 04:27:28;;;;;;;;;;;;;;;17.61;65.34;97777.47;2080759;28;19994;-64
2023/03/09 04:28:30;;;;;;;;;;;;;;;17.61;65.18;97778.28;2080121;28;19933;-64
2023/03/09 04:29:30;;;;;;;;;;;;;;;17.61;65.37;97770.25;2077508;28;20049;-65
2023/03/09 04:30:33;;;;;;;;;;;;;;;17.62;65.42;97769.19;2079803;28;19933;-65
2023/03/09 04:31:34;;;;;;;;;;;;;;;17.59;65.40;97760.78;2079864;28;19958;-66
2023/03/09 04:32:35;;;;;;;;;;;;;;;17.60;65.45;97759.72;2081643;28;19955;-65
2023/03/09 04:33:36;;;;;;;;;;;;;;;17.57;65.31;97760.16;2072852;28;19982;-66
2023/03/09 04:34:37;;;;;;;;;;;;;;;17.54;65.40;97755.25;2079425;28;19951;-66
2023/03/09 04:35:37;;;;;;;;;;;;;;;17.54;65.67;97758.72;2080707;28;19928;-65
2023/03/09 04:36:39;;;;;;;;;;;;;;;17.58;65.44;97757.28;2081157;28;19928;-64
2023/03/09 04:37:40;;;;;;;;;;;;;;;17.60;65.61;97754.34;2080634;28;19978;-65
2023/03/09 04:38:41;;;;;;;;;;;;;;;17.61;65.69;97756.84;2080605;28;20394;-62
2023/03/09 04:39:42;;;;;;;;;;;;;;;17.64;65.69;97761.75;2080616;28;20052;-65
2023/03/09 04:40:43;;;;;;;;;;;;;;;17.67;66.13;97755.13;2080655;28;19981;-65
2023/03/09 04:41:44;;;;;;;;;;;;;;;17.68;65.96;97759.44;2079418;28;19933;-66
2023/03/09 04:42:45;;;;;;;;;;;;;;;17.70;66.02;97764.63;2078906;28;19984;-65
2023/03/09 04:43:46;;;;;;;;;;;;;;;17.73;66.18;97758.81;2080038;28;20336;-65
2023/03/09 04:44:48;;;;;;;;;;;;;;;17.75;65.91;97765.59;2080272;28;19990;-66
2023/03/09 04:45:49;;;;;;;;;;;;;;;17.79;66.13;97766.00;2072961;28;20357;-65
2023/03/09 04:46:51;;;;;;;;;;;;;;;17.84;66.15;97763.50;2074220;28;19929;-65
2023/03/09 04:47:51;;;;;;;;;;;;;;;17.86;66.08;97770.28;2070256;28;20434;-66
2023/03/09 04:48:53;;;;;;;;;;;;;;;17.90;65.84;97765.28;2065220;28;20006;-66
2023/03/09 04:49:53;;;;;;;;;;;;;;;17.92;66.08;97751.66;2070689;28;20085;-65
2023/03/09 04:50:54;;;;;;;;;;;;;;;17.96;66.08;97761.72;2056389;28;20647;-65
2023/03/09 04:51:55;;;;;;;;;;;;;;;18.00;66.45;97754.88;2066664;28;19928;-65
2023/03/09 04:52:57;;;;;;;;;;;;;;;18.04;65.84;97757.94;2065868;28;19937;-66
2023/03/09 04:53:57;;;;;;;;;;;;;;;18.07;66.16;97752.13;2068916;28;20957;-65
2023/03/09 04:54:59;;;;;;;;;;;;;;;18.10;66.26;97754.38;2066969;28;20012;-65
2023/03/09 04:55:59;;;;;;;;;;;;;;;18.14;65.97;97752.09;2070667;28;20271;-66
2023/03/09 04:57:01;;;;;;;;;;;;;;;18.17;65.84;97754.31;2069290;28;19991;-65
2023/03/09 04:58:01;;;;;;;;;;;;;;;18.22;65.77;97754.44;2076912;28;20603;-66
2023/03/09 04:59:03;;;;;;;;;;;;;;;18.26;65.61;97752.97;2069134;28;19929;-65
2023/03/09 05:00:07;;;;;;;;;;;;;;;18.27;65.97;97762.66;2070865;28;19959;-66
2023/03/09 05:01:10;;;;;;;;;;;;;;;18.29;65.91;97761.41;2068751;28;20571;-65
2023/03/09 05:02:11;;;;;;;;;;;;;;;18.33;65.81;97764.47;2075590;28;20349;-65
2023/03/09 05:03:12;;;;;;;;;;;;;;;18.35;66.07;97769.59;2068289;28;19940;-66
2023/03/09 05:04:13;;;;;;;;;;;;;;;18.37;65.87;97762.16;2062510;28;20402;-65
2023/03/09 05:05:16;;;;;;;;;;;;;;;18.38;65.78;97761.91;2067051;28;19932;-65
2023/03/09 05:06:16;;;;;;;;;;;;;;;18.42;65.55;97763.13;2067174;28;19975;-65
2023/03/09 05:07:18;;;;;;;;;;;;;;;18.46;65.80;97764.31;2071411;28;20204;-65
2023/03/09 05:08:18;;;;;;;;;;;;;;;18.48;65.56;97761.41;2070305;28;20220;-66
2023/03/09 05:09:20;;;;;;;;;;;;;;;18.48;65.58;97756.03;2071601;28;19978;-65
2023/03/09 05:10:20;;;;;;;;;;;;;;;18.49;65.64;97765.72;2069844;28;19970;-65
2023/03/09 05:11:22;;;;;;;;;;;;;;;18.52;65.56;97765.28;2071961;28;19933;-65
2023/03/09 05:12:22;;;;;;;;;;;;;;;18.51;65.53;97775.19;2067190;28;19978;-65
2023/03/09 05:13:24;;;;;;;;;;;;;;;18.53;65.81;97775.00;2069885;28;20344;-66
2023/03/09 05:14:24;;;;;;;;;;;;;;;18.54;65.48;97782.81;2071265;28;19928;-65
2023/03/09 05:15:26;;;;;;;;;;;;;;;18.56;65.54;97779.91;2068656;28;19974;-65
2023/03/09 05:16:27;;;;;;;;;;;;;;;18.62;65.04;97783.56;2068743;28;19929;-65
2023/03/09 05:17:30;;;;;;;;;;;;;;;18.69;65.29;97779.75;2076122;28;19951;-64
2023/03/09 05:18:30;;;;;;;;;;;;;;;18.73;64.81;97777.44;2068170;28;19928;-65
2023/03/09 05:19:33;;;;;;;;;;;;;;;18.73;64.85;97772.06;2072976;28;20686;-65
2023/03/09 05:20:33;;;;;;;;;;;;;;;18.73;64.78;97769.38;2071424;28;19929;-66
2023/03/09 05:21:35;;;;;;;;;;;;;;;18.73;64.96;97772.06;2060871;28;19933;-66